Time;durP1;ratioP1;P1;durP2;ratioP2;P2;SDS_P1;SDS_P2;PMS_P1;PMS_P2;Temp;Humidity;BMP_temperature;BMP_pressure;BME280_temperature;BME280_humidity;BME280_pressure;Samples;Min_cycle;Max_cycle;Signal;HPM_P1;HPM_P2
2022/06/26 00:00:40;;;;;;;;;;;;;;;22.01;59.66;99455.59;1088081;54;19938;-84
2022/06/26 00:01:44;;;;;;;;;;;;;;;22.01;59.65;99459.13;1088240;47;19991;-83
2022/06/26 00:02:45;;;;;;;;;;;;;;;22.02;60.18;99459.94;1087777;54;19943;-83
2022/06/26 00:03:49;;;;;;;;;;;;;;;22.04;59.66;99457.81;1087992;54;19950;-85
2022/06/26 00:04:52;;;;;;;;;;;;;;;22.01;60.08;99450.97;1089282;47;19931;-82
2022/06/26 00:05:55;;;;;;;;;;;;;;;21.97;60.00;99458.78;1088304;54;19942;-84
2022/06/26 00:07:00;;;;;;;;;;;;;;;21.87;61.29;99457.72;1088410;54;19943;-83
2022/06/26 00:08:05;;;;;;;;;;;;;;;21.81;60.78;99454.03;1090302;47;19962;-85
2022/06/26 00:09:06;;;;;;;;;;;;;;;21.70;62.15;99462.97;1089101;47;19938;-86
2022/06/26 00:10:11;;;;;;;;;;;;;;;21.71;61.03;99453.75;1088362;54;19942;-84
2022/06/26 00:11:12;;;;;;;;;;;;;;;21.69;61.70;99455.88;1093197;47;19931;-84
2022/06/26 00:12:16;;;;;;;;;;;;;;;21.68;61.06;99459.66;1088341;54;19993;-84
2022/06/26 00:13:18;;;;;;;;;;;;;;;21.68;61.32;99465.09;1091656;47;19943;-85
2022/06/26 00:14:22;;;;;;;;;;;;;;;21.69;61.06;99455.88;1088341;54;19923;-85
2022/06/26 00:15:23;;;;;;;;;;;;;;;21.73;61.11;99459.78;1088369;54;19930;-83
2022/06/26 00:16:26;;;;;;;;;;;;;;;21.73;61.01;99457.91;1088243;54;19978;-84
2022/06/26 00:17:28;;;;;;;;;;;;;;;21.73;61.11;99462.50;1089242;47;19965;-85
2022/06/26 00:18:31;;;;;;;;;;;;;;;21.73;60.89;99463.34;1088315;47;20015;-85
2022/06/26 00:19:33;;;;;;;;;;;;;;;21.72;61.01;99466.31;1087757;54;19942;-85
2022/06/26 00:20:36;;;;;;;;;;;;;;;21.76;60.85;99475.63;1087843;54;19949;-86
2022/06/26 00:21:38;;;;;;;;;;;;;;;21.72;61.64;99471.75;1087925;54;19938;-84
2022/06/26 00:22:44;;;;;;;;;;;;;;;21.70;61.22;99469.22;1088830;47;19977;-87
2022/06/26 00:23:45;;;;;;;;;;;;;;;21.69;61.15;99472.19;1088187;54;19938;-87
2022/06/26 00:24:49;;;;;;;;;;;;;;;21.64;61.47;99468.28;1088187;54;19933;-85
2022/06/26 00:25:50;;;;;;;;;;;;;;;21.66;61.25;99485.19;1088175;54;19943;-87
2022/06/26 00:26:54;;;;;;;;;;;;;;;21.68;61.11;99482.22;1088171;54;19939;-86
2022/06/26 00:27:55;;;;;;;;;;;;;;;21.69;60.98;99478.44;1088195;54;19950;-86
2022/06/26 00:28:59;;;;;;;;;;;;;;;21.69;61.27;99488.50;1088186;54;19965;-85
2022/06/26 00:30:00;;;;;;;;;;;;;;;21.70;60.98;99487.44;1088152;54;19942;-84
2022/06/26 00:31:04;;;;;;;;;;;;;;;21.69;60.92;99488.50;1088128;54;19943;-87
2022/06/26 00:32:06;;;;;;;;;;;;;;;21.62;60.93;99492.16;1088188;54;19950;-86
2022/06/26 00:33:09;;;;;;;;;;;;;;;21.60;61.06;99491.56;1088211;54;20823;-86
2022/06/26 00:34:11;;;;;;;;;;;;;;;21.59;61.20;99495.34;1088365;54;19960;-85
2022/06/26 00:35:14;;;;;;;;;;;;;;;21.59;60.75;99494.50;1088330;54;19950;-86
2022/06/26 00:36:16;;;;;;;;;;;;;;;21.59;61.08;99503.50;1088119;54;19942;-86
2022/06/26 00:37:20;;;;;;;;;;;;;;;21.64;60.83;99500.91;1087933;54;19998;-87
2022/06/26 00:38:24;;;;;;;;;;;;;;;21.65;60.61;99499.84;1087766;54;19950;-86
2022/06/26 00:39:28;;;;;;;;;;;;;;;21.68;60.58;99508.59;1088042;54;19943;-86
2022/06/26 00:40:29;;;;;;;;;;;;;;;21.69;60.43;99510.28;1088485;47;19946;-86
2022/06/26 00:41:33;;;;;;;;;;;;;;;21.69;60.18;99511.09;1088436;54;19950;-84
2022/06/26 00:42:35;;;;;;;;;;;;;;;21.65;60.66;99521.59;1088552;54;19943;-85
2022/06/26 00:43:38;;;;;;;;;;;;;;;;;;1088615;54;19942;-85
2022/06/26 00:44:39;;;;;;;;;;;;;;;21.35;61.90;99538.69;1089416;46;19919;-85
2022/06/26 00:45:43;;;;;;;;;;;;;;;21.16;62.44;99561.53;1088642;54;19939;-85
2022/06/26 00:46:45;;;;;;;;;;;;;;;21.10;62.99;99578.72;1088520;54;19962;-83
2022/06/26 00:47:48;;;;;;;;;;;;;;;21.12;63.22;99584.75;1088555;54;19943;-84
2022/06/26 00:48:49;;;;;;;;;;;;;;;21.03;63.37;99585.06;1088573;47;19947;-85
2022/06/26 00:49:53;;;;;;;;;;;;;;;21.07;62.92;99587.31;1088515;54;19942;-85
2022/06/26 00:50:54;;;;;;;;;;;;;;;21.11;62.40;99583.09;1090985;46;19939;-84
2022/06/26 00:51:59;;;;;;;;;;;;;;;21.04;61.90;99575.00;1088522;54;19934;-85
2022/06/26 00:53:00;;;;;;;;;;;;;;;21.08;61.76;99570.81;1088480;54;19943;-85
2022/06/26 00:54:07;;;;;;;;;;;;;;;21.15;61.70;99554.44;1090167;46;19939;-84
2022/06/26 00:55:09;;;;;;;;;;;;;;;21.25;61.17;99559.31;1088031;54;19934;-85
2022/06/26 00:56:13;;;;;;;;;;;;;;;21.16;60.52;99565.06;1088075;54;20014;-84
2022/06/26 00:57:14;;;;;;;;;;;;;;;21.03;61.00;99574.19;1088360;46;19923;-85
2022/06/26 00:58:18;;;;;;;;;;;;;;;20.99;61.13;99575.69;1087951;54;19949;-84
2022/06/26 00:59:19;;;;;;;;;;;;;;;21.11;60.52;99574.94;1090582;46;19943;-86
2022/06/26 01:00:23;;;;;;;;;;;;;;;21.23;60.47;99569.59;1088549;47;19939;-84
2022/06/26 01:01:24;;;;;;;;;;;;;;;21.26;60.12;99569.13;1088434;54;20847;-86
2022/06/26 01:02:28;;;;;;;;;;;;;;;21.32;59.79;99566.34;1088553;54;19942;-85
2022/06/26 01:03:29;;;;;;;;;;;;;;;21.37;59.26;99562.09;1091226;46;19943;-86
2022/06/26 01:04:33;;;;;;;;;;;;;;;21.42;59.23;99565.81;1088643;54;19934;-85
2022/06/26 01:05:34;;;;;;;;;;;;;;;21.45;59.33;99578.09;1089018;46;19935;-84
2022/06/26 01:06:38;;;;;;;;;;;;;;;21.44;58.85;99562.88;1088616;54;19942;-83
2022/06/26 01:07:40;;;;;;;;;;;;;;;21.47;58.86;99574.13;1091072;46;20754;-85
2022/06/26 01:08:43;;;;;;;;;;;;;;;21.47;58.86;99576.00;1088644;54;19989;-85
2022/06/26 01:09:47;;;;;;;;;;;;;;;21.28;59.23;99580.63;1088715;47;19922;-85
2022/06/26 01:10:51;;;;;;;;;;;;;;;21.22;59.35;99578.78;1088609;54;19923;-84
2022/06/26 01:11:53;;;;;;;;;;;;;;;21.11;60.08;99574.94;1089405;46;19962;-84
2022/06/26 01:12:57;;;;;;;;;;;;;;;21.11;60.09;99580.38;1088453;46;19929;-86
2022/06/26 01:13:59;;;;;;;;;;;;;;;21.07;59.97;99584.59;1089146;46;19950;-84
2022/06/26 01:15:08;;;;;;;;;;;;;;;21.00;60.52;99584.69;1089053;46;19938;-87
2022/06/26 01:16:09;;;;;;;;;;;;;;;20.98;60.47;99586.78;1088564;54;19957;-87
2022/06/26 01:17:14;;;;;;;;;;;;;;;21.03;60.16;99585.06;1092349;46;19943;-86
2022/06/26 01:18:15;;;;;;;;;;;;;;;20.96;60.60;99581.59;1088872;46;19950;-85
2022/06/26 01:19:19;;;;;;;;;;;;;;;20.98;60.63;99575.91;1090798;46;19942;-86
2022/06/26 01:20:20;;;;;;;;;;;;;;;20.95;60.44;99581.78;1089715;46;19950;-86
2022/06/26 01:21:27;;;;;;;;;;;;;;;20.98;60.73;99587.59;1088524;54;19950;-86
2022/06/26 01:22:31;;;;;;;;;;;;;;;21.01;60.56;99583.63;1091369;46;19934;-84
2022/06/26 01:23:35;;;;;;;;;;;;;;;21.00;60.39;99590.13;1088577;54;19949;-85
2022/06/26 01:24:36;;;;;;;;;;;;;;;21.05;60.02;99587.53;1088390;54;19946;-87
2022/06/26 01:25:47;;;;;;;;;;;;;;;21.08;60.13;99581.66;1088521;54;19983;-85
2022/06/26 01:26:50;;;;;;;;;;;;;;;21.04;60.32;99586.72;1088500;54;19946;-84
2022/06/26 01:27:53;;;;;;;;;;;;;;;20.97;60.56;99591.38;1088490;54;19965;-85
2022/06/26 01:28:56;;;;;;;;;;;;;;;20.99;60.57;99597.41;1088474;54;19943;-85
2022/06/26 01:29:57;;;;;;;;;;;;;;;21.11;59.81;99596.69;1088123;54;19954;-85
2022/06/26 01:31:01;;;;;;;;;;;;;;;21.10;60.12;99595.03;1089982;39;20613;-85
2022/06/26 01:32:03;;;;;;;;;;;;;;;21.15;59.92;99597.91;1092125;39;20181;-85
2022/06/26 01:33:08;;;;;;;;;;;;;;;21.24;59.42;99591.13;1088424;54;20243;-85
2022/06/26 01:34:10;;;;;;;;;;;;;;;21.31;59.52;99597.31;1088505;54;19927;-86
2022/06/26 01:35:14;;;;;;;;;;;;;;;21.29;59.29;99593.16;1089679;46;19926;-85
2022/06/26 01:36:15;;;;;;;;;;;;;;;21.23;59.40;99589.44;1088406;54;19966;-85
2022/06/26 01:37:19;;;;;;;;;;;;;;;21.24;59.19;99593.00;1088458;54;19948;-84
2022/06/26 01:38:23;;;;;;;;;;;;;;;21.33;59.16;99587.03;1088430;54;19943;-84
2022/06/26 01:39:27;;;;;;;;;;;;;;;21.39;59.17;99593.47;1090938;46;19943;-83
2022/06/26 01:40:28;;;;;;;;;;;;;;;21.46;58.94;99593.34;1088478;54;19950;-86
2022/06/26 01:41:32;;;;;;;;;;;;;;;21.50;58.62;99591.84;1088781;46;19970;-84
2022/06/26 01:43:57;;;;;;;;;;;;;;;21.60;58.07;99591.34;1087757;54;19974;-80
2022/06/26 01:44:58;;;;;;;;;;;;;;;21.61;58.44;99588.41;1088849;39;20568;-80
2022/06/26 01:46:02;;;;;;;;;;;;;;;21.60;58.19;99589.47;1088424;54;19942;-79
2022/06/26 01:47:03;;;;;;;;;;;;;;;21.56;58.84;99577.34;1088351;54;19950;-79
2022/06/26 01:48:08;;;;;;;;;;;;;;;21.50;58.87;99586.41;1087996;54;20523;-80
2022/06/26 01:49:09;;;;;;;;;;;;;;;21.52;58.42;99576.16;1088045;54;19943;-79
2022/06/26 01:50:13;;;;;;;;;;;;;;;21.55;58.53;99575.66;1088124;54;20317;-79
2022/06/26 01:51:14;;;;;;;;;;;;;;;21.57;58.22;99583.63;1088288;54;19987;-79
2022/06/26 01:52:18;;;;;;;;;;;;;;;21.58;58.56;99580.69;1091347;39;20414;-79
2022/06/26 01:53:22;;;;;;;;;;;;;;;21.62;58.49;99584.63;1088458;54;19934;-79
2022/06/26 01:54:26;;;;;;;;;;;;;;;21.65;58.01;99576.00;1088281;54;19959;-79
2022/06/26 01:55:27;;;;;;;;;;;;;;;21.68;58.13;99584.75;1088436;54;19934;-79
2022/06/26 01:56:31;;;;;;;;;;;;;;;21.65;58.37;99576.00;1088435;54;19957;-79
2022/06/26 01:57:32;;;;;;;;;;;;;;;21.66;58.07;99569.50;1088427;54;19930;-79
2022/06/26 01:58:37;;;;;;;;;;;;;;;21.62;58.84;99571.03;1088322;54;19931;-80
2022/06/26 01:59:38;;;;;;;;;;;;;;;21.63;58.78;99569.94;1088346;54;19929;-79
2022/06/26 02:00:43;;;;;;;;;;;;;;;21.64;58.72;99563.44;1088778;39;20411;-79
2022/06/26 02:03:28;;;;;;;;;;;;;;;21.56;59.15;99577.34;1087754;54;19973;-79
2022/06/26 02:04:29;;;;;;;;;;;;;;;21.59;58.86;99566.03;1088146;54;19962;-79
2022/06/26 02:05:33;;;;;;;;;;;;;;;21.50;59.65;99568.19;1087673;54;19954;-80
2022/06/26 02:06:34;;;;;;;;;;;;;;;21.58;59.24;99580.69;1087535;54;19934;-80
2022/06/26 02:07:38;;;;;;;;;;;;;;;21.62;59.45;99575.63;1087538;54;19949;-80
2022/06/26 02:08:42;;;;;;;;;;;;;;;21.39;60.63;99577.16;1088507;54;19973;-79
2022/06/26 02:13:43;;;;;;;;;;;;;;;21.35;60.56;99603.13;1088447;54;19959;-80
2022/06/26 02:14:49;;;;;;;;;;;;;;;21.33;61.03;99607.94;1088467;54;19942;-80
2022/06/26 02:15:53;;;;;;;;;;;;;;;21.30;60.63;99611.13;1088382;54;19979;-79
2022/06/26 02:17:05;;;;;;;;;;;;;;;21.22;61.28;99597.81;1088496;54;20559;-79
2022/06/26 02:18:07;;;;;;;;;;;;;;;21.36;60.61;99599.34;1094127;46;19927;-80
2022/06/26 02:19:17;;;;;;;;;;;;;;;21.37;60.70;99589.28;1088354;54;19950;-80
2022/06/26 02:20:18;;;;;;;;;;;;;;;21.35;60.82;99597.69;1088430;54;19927;-79
2022/06/26 02:21:23;;;;;;;;;;;;;;;21.29;60.67;99590.44;1088368;54;19954;-80
2022/06/26 02:22:24;;;;;;;;;;;;;;;21.16;61.23;99596.84;1088448;54;19943;-79
2022/06/26 02:23:30;;;;;;;;;;;;;;;21.16;60.97;99588.69;1088027;54;19947;-79
2022/06/26 02:35:22;;;;;;;;;;;;;;;21.07;60.65;99581.88;1087424;54;19927;-82
2022/06/26 02:36:27;;;;;;;;;;;;;;;21.17;60.17;99590.34;1088359;54;19946;-81
2022/06/26 02:37:43;;;;;;;;;;;;;;;21.20;60.13;99592.63;1088624;54;19935;-84
2022/06/26 02:38:47;;;;;;;;;;;;;;;21.08;60.43;99589.81;1088597;54;19927;-82
2022/06/26 02:39:49;;;;;;;;;;;;;;;21.10;60.62;99597.75;1088501;54;19947;-82
2022/06/26 02:40:53;;;;;;;;;;;;;;;21.20;59.89;99589.91;1088230;54;19938;-82
2022/06/26 02:42:07;;;;;;;;;;;;;;;21.17;60.11;99591.19;1088257;54;20527;-83
2022/06/26 02:43:08;;;;;;;;;;;;;;;21.23;59.61;99584.03;1088247;54;19935;-83
2022/06/26 02:44:22;;;;;;;;;;;;;;;;;;;;;
2022/06/26 03:01:09;;;;;;;;;;;;;;;20.58;62.27;99599.66;1088230;46;19943;-82
2022/06/26 03:02:10;;;;;;;;;;;;;;;20.58;62.10;99598.81;1100966;39;20622;-82
2022/06/26 03:09:19;;;;;;;;;;;;;;;20.46;63.05;99603.31;1096484;46;19943;-83
2022/06/26 03:10:20;;;;;;;;;;;;;;;20.47;63.02;99600.34;1088533;54;19923;-82
2022/06/26 03:11:24;;;;;;;;;;;;;;;20.52;62.88;99600.53;1088621;54;19933;-83
2022/06/26 03:12:25;;;;;;;;;;;;;;;20.52;62.56;99599.69;1088644;54;19943;-83
2022/06/26 03:13:29;;;;;;;;;;;;;;;20.56;62.56;99590.06;1088566;54;19918;-82
2022/06/26 03:14:31;;;;;;;;;;;;;;;20.45;62.95;99593.50;1088754;54;19931;-79
2022/06/26 03:15:48;;;;;;;;;;;;;;;20.48;62.56;99587.63;1088678;54;19961;-79
2022/06/26 03:16:52;;;;;;;;;;;;;;;20.51;62.55;99588.03;1088530;54;19934;-85
2022/06/26 03:18:02;;;;;;;;;;;;;;;20.56;62.44;99590.88;1093560;39;20447;-82
2022/06/26 03:19:04;;;;;;;;;;;;;;;20.49;62.79;99589.28;1088406;54;19923;-81
2022/06/26 03:20:10;;;;;;;;;;;;;;;20.46;62.66;99587.00;1088396;54;20458;-82
2022/06/26 03:21:11;;;;;;;;;;;;;;;20.41;62.97;99587.69;1088441;54;19939;-81
2022/06/26 03:22:28;;;;;;;;;;;;;;;20.47;62.48;99583.25;1088481;54;19942;-80
2022/06/26 15:23:06;;;;;;;;;;;;;;;31.47;33.69;99423.69;885337;54;52336;-80
2022/06/26 15:24:30;;;;;;;;;;;;;;;31.64;33.38;99416.81;1083525;39;20325;-78
2022/06/26 15:25:34;;;;;;;;;;;;;;;31.53;33.33;99421.66;1083293;39;20385;-81
2022/06/26 15:26:35;;;;;;;;;;;;;;;31.66;33.00;99422.84;1082893;54;19950;-78
2022/06/26 15:27:39;;;;;;;;;;;;;;;31.70;33.06;99419.19;1082761;54;19946;-78
2022/06/26 15:28:42;;;;;;;;;;;;;;;31.52;33.25;99415.31;1083069;54;19946;-79
2022/06/26 15:29:44;;;;;;;;;;;;;;;31.14;33.91;99420.84;1082763;54;19954;-78
2022/06/26 15:30:47;;;;;;;;;;;;;;;30.95;33.96;99418.03;1083050;54;19957;-79
2022/06/26 15:31:48;;;;;;;;;;;;;;;31.16;33.81;99415.03;1083000;47;19969;-79
2022/06/26 15:32:52;;;;;;;;;;;;;;;31.08;34.28;99416.50;1082898;54;20469;-79
2022/06/26 15:33:53;;;;;;;;;;;;;;;31.09;34.08;99409.84;1082838;54;19981;-78
2022/06/26 15:34:57;;;;;;;;;;;;;;;31.11;34.24;99419.53;1082853;54;19947;-78
2022/06/26 15:36:01;;;;;;;;;;;;;;;31.12;34.29;99412.03;1082953;54;20547;-77
2022/06/26 15:37:02;;;;;;;;;;;;;;;30.86;34.36;99408.78;1082950;54;19953;-79
2022/06/26 15:39:24;;;;;;;;;;;;;;;30.89;34.38;99406.25;1087434;54;19951;-79
2022/06/26 15:40:27;;;;;;;;;;;;;;;30.90;34.40;99404.31;1088135;54;19930;-80
2022/06/26 15:41:29;;;;;;;;;;;;;;;30.76;34.41;99404.22;1088060;54;19946;-78
2022/06/26 15:42:33;;;;;;;;;;;;;;;30.75;34.82;99413.63;1088130;54;19951;-79
2022/06/26 15:43:34;;;;;;;;;;;;;;;30.70;34.84;99408.97;1088581;47;19950;-80
2022/06/26 15:44:38;;;;;;;;;;;;;;;30.78;34.64;99405.56;1088216;54;19935;-81
2022/06/26 15:45:42;;;;;;;;;;;;;;;30.95;34.40;99407.00;1089323;47;19939;-79
2022/06/26 15:46:43;;;;;;;;;;;;;;;31.03;34.49;99403.56;1088121;54;20010;-80
2022/06/26 15:47:47;;;;;;;;;;;;;;;30.89;34.43;99397.97;1088224;54;19939;-82
2022/06/26 15:48:48;;;;;;;;;;;;;;;30.78;34.64;99396.47;1088163;54;19943;-83
2022/06/26 15:49:52;;;;;;;;;;;;;;;30.59;35.12;99394.50;1088225;54;19994;-79
2022/06/26 15:50:55;;;;;;;;;;;;;;;30.53;34.98;99392.91;1088512;54;19943;-79
2022/06/26 15:51:59;;;;;;;;;;;;;;;30.41;35.30;99395.25;1091134;46;19978;-79
2022/06/26 15:53:03;;;;;;;;;;;;;;;30.21;35.25;99393.50;1088311;54;19943;-79
2022/06/26 15:54:04;;;;;;;;;;;;;;;30.41;35.09;99396.06;1088320;54;19950;-81
2022/06/26 15:55:12;;;;;;;;;;;;;;;30.49;35.13;99386.31;1088297;54;19945;-80
2022/06/26 15:56:13;;;;;;;;;;;;;;;30.62;35.14;99379.31;1088214;54;20002;-79
2022/06/26 15:57:17;;;;;;;;;;;;;;;30.74;35.10;99389.91;1088209;54;20018;-80
2022/06/26 15:58:18;;;;;;;;;;;;;;;30.82;34.93;99383.72;1088132;54;20674;-82
2022/06/26 15:59:22;;;;;;;;;;;;;;;30.69;34.82;99385.28;1088159;54;19939;-80
2022/06/26 16:00:26;;;;;;;;;;;;;;;30.63;35.21;99379.00;1089675;39;20249;-81
2022/06/26 16:01:27;;;;;;;;;;;;;;;30.59;35.03;99377.97;1088186;54;19965;-81
2022/06/26 16:02:32;;;;;;;;;;;;;;;30.68;34.92;99386.38;1088140;54;19938;-81
2022/06/26 16:03:35;;;;;;;;;;;;;;;30.64;35.25;99375.13;1088117;54;20007;-81
2022/06/26 16:04:39;;;;;;;;;;;;;;;30.65;35.06;99370.44;1088137;54;19938;-82
2022/06/26 16:05:40;;;;;;;;;;;;;;;30.52;35.54;99377.47;1088175;54;19942;-82
2022/06/26 16:06:44;;;;;;;;;;;;;;;30.54;35.38;99363.41;1088138;54;19943;-81
2022/06/26 16:07:48;;;;;;;;;;;;;;;30.62;35.46;99371.84;1088071;54;19949;-82
2022/06/26 16:08:49;;;;;;;;;;;;;;;30.66;35.07;99366.53;1088217;46;19943;-82
2022/06/26 16:09:53;;;;;;;;;;;;;;;30.47;36.31;99370.06;1088773;46;19945;-79
2022/06/26 16:11:03;;;;;;;;;;;;;;;30.33;36.75;99364.44;1088235;54;19943;-81
2022/06/26 16:12:07;;;;;;;;;;;;;;;30.39;36.68;99365.19;1088501;54;20598;-81
2022/06/26 16:13:08;;;;;;;;;;;;;;;30.46;36.35;99356.56;1088455;54;19942;-80
2022/06/26 16:14:12;;;;;;;;;;;;;;;30.58;36.64;99362.53;1088679;46;19942;-82
2022/06/26 16:15:13;;;;;;;;;;;;;;;30.62;36.40;99365.50;1089438;46;19926;-81
2022/06/26 16:16:18;;;;;;;;;;;;;;;30.59;36.23;99358.66;1092557;39;20550;-82
2022/06/26 16:17:19;;;;;;;;;;;;;;;30.59;36.50;99358.66;1088362;54;19943;-82
2022/06/26 16:18:22;;;;;;;;;;;;;;;30.61;36.34;99355.59;1088434;54;19950;-80
2022/06/26 16:19:24;;;;;;;;;;;;;;;30.64;36.34;99355.81;1088595;54;19951;-82
2022/06/26 16:20:28;;;;;;;;;;;;;;;30.63;35.97;99356.94;1088363;54;19946;-81
2022/06/26 16:21:31;;;;;;;;;;;;;;;30.60;36.28;99357.56;1088446;54;19942;-79
2022/06/26 16:26:26;;;;;;;;;;;;;;;30.55;36.31;99360.34;1088091;54;19996;-79
2022/06/26 16:27:31;;;;;;;;;;;;;;;30.65;36.31;99360.22;1087975;54;19942;-80
2022/06/26 16:28:32;;;;;;;;;;;;;;;30.73;36.32;99371.72;1088042;54;19934;-80
2022/06/26 16:29:36;;;;;;;;;;;;;;;30.79;36.19;99363.06;1088129;54;19943;-81
2022/06/26 16:30:37;;;;;;;;;;;;;;;30.80;36.17;99361.97;1088108;54;19942;-78
2022/06/26 16:31:41;;;;;;;;;;;;;;;30.83;36.11;99357.78;1087985;54;19935;-79
2022/06/26 16:32:44;;;;;;;;;;;;;;;30.83;36.32;99360.53;1088042;47;20006;-80
2022/06/26 16:33:48;;;;;;;;;;;;;;;30.65;36.64;99356.66;1088652;46;19942;-81
2022/06/26 16:34:49;;;;;;;;;;;;;;;30.49;36.65;99359.56;1088132;54;19942;-79
2022/06/26 16:35:52;;;;;;;;;;;;;;;30.53;36.86;99357.06;1088045;54;19938;-79
2022/06/26 16:36:54;;;;;;;;;;;;;;;30.53;36.88;99357.06;1088265;54;19963;-83
2022/06/26 16:37:57;;;;;;;;;;;;;;;30.27;37.16;99362.84;1089236;46;19954;-81
2022/06/26 16:39:01;;;;;;;;;;;;;;;30.23;37.34;99349.97;1090019;46;19923;-79
2022/06/26 16:40:03;;;;;;;;;;;;;;;30.27;37.49;99351.84;1088204;46;20048;-78
2022/06/26 16:41:07;;;;;;;;;;;;;;;30.25;37.57;99359.56;1087896;54;19994;-82
2022/06/26 16:42:13;;;;;;;;;;;;;;;30.28;37.44;99350.72;1091900;46;19939;-80
2022/06/26 16:43:14;;;;;;;;;;;;;;;30.19;37.58;99355.22;1091223;46;19963;-80
2022/06/26 16:44:18;;;;;;;;;;;;;;;30.35;37.36;99348.44;1088593;54;19931;-79
2022/06/26 16:45:19;;;;;;;;;;;;;;;30.40;37.16;99349.50;1089105;46;19918;-80
2022/06/26 16:46:23;;;;;;;;;;;;;;;30.45;37.18;99344.75;1091066;46;19991;-82
2022/06/26 16:47:24;;;;;;;;;;;;;;;30.45;37.13;99346.66;1091503;46;19978;-81
2022/06/26 16:48:28;;;;;;;;;;;;;;;30.46;36.96;99340.88;1088879;46;19982;-81
2022/06/26 16:49:29;;;;;;;;;;;;;;;30.40;37.23;99342.03;1093664;46;19949;-81
2022/06/26 16:50:33;;;;;;;;;;;;;;;30.37;37.46;99339.84;1088553;54;19982;-79
2022/06/26 16:51:36;;;;;;;;;;;;;;;30.45;37.46;99343.91;1088504;54;19949;-79
2022/06/26 16:52:41;;;;;;;;;;;;;;;30.44;37.22;99345.00;1088372;54;20021;-80
2022/06/26 16:53:44;;;;;;;;;;;;;;;30.49;37.11;99337.50;1088477;54;19943;-79
2022/06/26 16:54:45;;;;;;;;;;;;;;;30.50;37.21;99333.63;1088520;54;19931;-79
2022/06/26 16:55:49;;;;;;;;;;;;;;;30.48;37.26;99344.13;1090951;46;19943;-79
2022/06/26 16:56:50;;;;;;;;;;;;;;;30.49;37.10;99336.69;1090938;46;19935;-80
2022/06/26 16:57:57;;;;;;;;;;;;;;;30.48;37.47;99343.31;1088320;54;19942;-80
2022/06/26 16:59:01;;;;;;;;;;;;;;;30.20;37.67;99345.84;1088319;54;19946;-80
2022/06/26 17:00:03;;;;;;;;;;;;;;;30.37;37.51;99339.03;1088558;54;19926;-80
2022/06/26 17:01:06;;;;;;;;;;;;;;;30.24;37.64;99338.63;1088374;54;19942;-79
2022/06/26 17:07:08;;;;;;;;;;;;;;;30.45;37.23;99335.63;1088115;54;19974;-82
2022/06/26 17:08:12;;;;;;;;;;;;;;;30.48;37.42;99343.31;1089386;46;19953;-79
2022/06/26 17:09:16;;;;;;;;;;;;;;;30.38;37.84;99338.75;1088139;54;19935;-80
2022/06/26 17:10:18;;;;;;;;;;;;;;;30.25;38.09;99333.97;1088213;54;19942;-82
2022/06/26 17:11:22;;;;;;;;;;;;;;;30.23;37.94;99334.22;1089505;46;20678;-79
2022/06/26 17:12:23;;;;;;;;;;;;;;;30.03;38.03;99338.03;1092639;39;20617;-84
2022/06/26 17:13:30;;;;;;;;;;;;;;;29.92;38.60;99342.81;1088193;54;19942;-80
2022/06/26 17:14:31;;;;;;;;;;;;;;;29.95;38.61;99336.72;1090615;46;19943;-81
2022/06/26 17:15:35;;;;;;;;;;;;;;;30.10;38.25;99329.44;1087628;54;19950;-80
2022/06/26 17:16:39;;;;;;;;;;;;;;;30.23;38.18;99336.97;1087725;54;19939;-81
2022/06/26 17:17:40;;;;;;;;;;;;;;;30.25;38.17;99331.19;1088047;54;19942;-81
2022/06/26 17:18:44;;;;;;;;;;;;;;;30.16;38.48;99326.34;1088037;54;19968;-81
2022/06/26 17:19:45;;;;;;;;;;;;;;;30.04;38.48;99337.75;1087924;54;19942;-83
2022/06/26 17:20:49;;;;;;;;;;;;;;;30.12;38.53;99329.97;1088036;46;20713;-81
2022/06/26 17:21:50;;;;;;;;;;;;;;;30.17;38.20;99333.50;1087899;54;19933;-81
2022/06/26 17:22:54;;;;;;;;;;;;;;;30.16;38.54;99333.75;1087898;54;19958;-82
2022/06/26 17:23:58;;;;;;;;;;;;;;;30.13;38.58;99335.19;1087691;54;19942;-83
2022/06/26 17:24:59;;;;;;;;;;;;;;;30.09;38.44;99339.63;1087602;54;19950;-82
2022/06/26 17:26:03;;;;;;;;;;;;;;;30.09;38.64;99336.88;1087661;54;19946;-83
2022/06/26 17:27:07;;;;;;;;;;;;;;;30.07;38.65;99341.03;1087711;54;19954;-83
2022/06/26 17:28:14;;;;;;;;;;;;;;;29.94;38.93;99340.63;1091044;39;20803;-83
2022/06/26 17:29:33;;;;;;;;;;;;;;;29.95;39.06;99342.25;1088120;54;19943;-83
2022/06/26 17:30:37;;;;;;;;;;;;;;;29.94;39.10;99342.53;1090025;46;19943;-81
2022/06/26 17:31:41;;;;;;;;;;;;;;;29.92;39.04;99339.22;1088098;54;19969;-80
2022/06/26 17:32:42;;;;;;;;;;;;;;;29.91;39.08;99346.69;1088092;54;19943;-81
2022/06/26 17:33:46;;;;;;;;;;;;;;;29.81;39.32;99336.56;1088390;54;19950;-83
2022/06/26 17:34:47;;;;;;;;;;;;;;;29.79;39.33;99336.06;1088451;54;19927;-80
2022/06/26 17:35:51;;;;;;;;;;;;;;;29.92;39.12;99330.97;1092936;39;20616;-80
2022/06/26 17:36:52;;;;;;;;;;;;;;;29.92;39.43;99331.81;1088435;54;19942;-82
2022/06/26 17:37:56;;;;;;;;;;;;;;;29.97;39.10;99326.25;1088341;54;19949;-85
2022/06/26 17:38:57;;;;;;;;;;;;;;;29.93;39.35;99335.38;1088310;54;19943;-82
2022/06/26 17:40:01;;;;;;;;;;;;;;;29.98;39.39;99330.66;1091468;39;20523;-82
2022/06/26 17:41:02;;;;;;;;;;;;;;;29.99;39.31;99325.97;1088422;54;19949;-81
2022/06/26 17:42:07;;;;;;;;;;;;;;;30.00;39.45;99333.94;1087818;54;19938;-83
2022/06/26 17:43:08;;;;;;;;;;;;;;;29.94;39.62;99332.38;1087953;54;19949;-80
2022/06/26 17:44:12;;;;;;;;;;;;;;;29.96;39.29;99330.13;1088432;39;20578;-81
2022/06/26 17:45:14;;;;;;;;;;;;;;;29.94;39.42;99329.59;1088023;54;19967;-81
2022/06/26 17:46:20;;;;;;;;;;;;;;;29.76;39.71;99328.38;1088009;54;19950;-79
2022/06/26 17:48:40;;;;;;;;;;;;;;;29.64;39.68;99315.00;1087945;54;19934;-81
2022/06/26 17:49:41;;;;;;;;;;;;;;;29.75;39.55;99309.41;1088464;46;19959;-82
2022/06/26 17:50:45;;;;;;;;;;;;;;;29.69;39.80;99314.13;1087967;54;19969;-82
2022/06/26 17:51:46;;;;;;;;;;;;;;;29.47;40.17;99307.16;1087929;54;19967;-79
2022/06/26 17:52:51;;;;;;;;;;;;;;;29.39;40.76;99305.84;1087877;54;20881;-80
2022/06/26 17:53:52;;;;;;;;;;;;;;;29.58;40.32;99302.38;1087953;54;19999;-82
2022/06/26 17:54:56;;;;;;;;;;;;;;;29.47;40.65;99309.09;1087998;54;19950;-79
2022/06/26 17:55:59;;;;;;;;;;;;;;;29.44;40.59;99307.72;1087989;54;19943;-80
2022/06/26 17:57:01;;;;;;;;;;;;;;;29.37;41.08;99310.00;1088132;46;20021;-80
2022/06/26 17:58:05;;;;;;;;;;;;;;;29.47;40.86;99312.66;1088522;46;19943;-80
2022/06/26 17:59:06;;;;;;;;;;;;;;;29.53;40.57;99313.44;1087967;54;19949;-82
2022/06/26 18:00:10;;;;;;;;;;;;;;;29.57;40.73;99312.56;1088724;46;19944;-81
2022/06/26 18:01:15;;;;;;;;;;;;;;;29.62;40.31;99314.47;1087923;54;19943;-82
2022/06/26 18:02:19;;;;;;;;;;;;;;;29.47;40.67;99309.91;1087943;47;20579;-79
2022/06/26 18:03:23;;;;;;;;;;;;;;;29.34;40.92;99313.31;1088716;46;19942;-79
2022/06/26 18:04:24;;;;;;;;;;;;;;;29.43;40.68;99317.09;1087960;54;20690;-78
2022/06/26 18:05:28;;;;;;;;;;;;;;;29.42;40.91;99313.53;1087865;54;19991;-80
2022/06/26 18:06:29;;;;;;;;;;;;;;;29.49;40.48;99312.38;1087909;54;19938;-80
2022/06/26 18:07:33;;;;;;;;;;;;;;;29.57;40.50;99308.97;1087882;54;20912;-79
2022/06/26 18:08:37;;;;;;;;;;;;;;;29.60;40.49;99311.16;1087914;54;19950;-80
2022/06/26 18:09:38;;;;;;;;;;;;;;;29.55;40.61;99311.22;1087933;54;19966;-79
2022/06/26 18:10:42;;;;;;;;;;;;;;;29.59;40.34;99312.28;1087938;54;19943;-79
2022/06/26 18:11:44;;;;;;;;;;;;;;;29.57;40.47;99309.81;1089402;39;20574;-80
2022/06/26 18:12:48;;;;;;;;;;;;;;;29.58;40.40;99310.63;1087551;54;19943;-80
2022/06/26 18:13:50;;;;;;;;;;;;;;;29.53;40.71;99306.00;1087959;54;19967;-79
2022/06/26 18:14:53;;;;;;;;;;;;;;;29.49;40.87;99315.13;1087960;54;19942;-84
2022/06/26 18:16:01;;;;;;;;;;;;;;;29.48;40.78;99302.47;1087977;54;20665;-81
2022/06/26 18:17:03;;;;;;;;;;;;;;;29.48;40.80;99306.06;1087932;54;19966;-81
2022/06/26 18:18:11;;;;;;;;;;;;;;;29.44;40.98;99309.66;1087901;54;19994;-80
2022/06/26 18:19:12;;;;;;;;;;;;;;;29.34;41.07;99316.91;1087676;54;19942;-80
2022/06/26 18:20:17;;;;;;;;;;;;;;;29.31;41.21;99311.94;1087688;54;20566;-79
2022/06/26 18:21:18;;;;;;;;;;;;;;;29.30;41.26;99315.78;1087900;54;19998;-81